Chesterville, Texas
Current Conditions -  °F | °C
As of 4:55 PM on Saturday 25 Oct 2014 (Local Time) from KELA Reporting Station
Clear Clear  
Wind Chill: 85°   Ceiling: Unl
Heat Index: 85°   Visibility: 10mi
Dew Point: 60°   Wind: 6mph
Humidity: 43%   Direction: 70°ENE
Pressure: 30.08"   Gusts: NA
Location:  29.4737°N, 96.1754°W
Report Text: KELA 252155Z AUTO 07005KT 10SM CLR 29/16 A3008 RMK AO2 T02930157
Loading
Personal Weather Stations






























Interactive Weather Map
Tropical Storm Tracking
New forecast layout! Learn more

10-Day Weather Forecast

Advertisements
Track Severe Weather on mobile